createdAt,value
2018-11-20T05:16:19.372Z,4.83
2018-11-20T05:17:18.874Z,4.77
2018-11-20T05:18:19.165Z,4.79
2018-11-20T05:19:18.881Z,4.87
2018-11-20T05:20:18.687Z,4.86
2018-11-20T05:21:18.686Z,4.86
2018-11-20T05:22:18.638Z,4.80
2018-11-20T05:23:18.841Z,4.84
2018-11-20T05:24:18.551Z,4.80
2018-11-20T05:25:18.597Z,4.91
2018-11-20T06:24:12.085Z,4.87
2018-11-20T06:25:11.787Z,4.86
2018-11-20T06:26:11.743Z,4.93
2018-11-20T06:27:11.694Z,4.84
2018-11-20T06:28:11.648Z,4.83
2018-11-20T06:29:12.019Z,4.79
2018-11-20T06:30:11.554Z,4.79
2018-11-20T06:31:11.508Z,4.83
2018-11-20T06:32:11.463Z,4.86
2018-11-20T06:33:11.413Z,4.79
2018-11-20T06:34:11.369Z,4.79
2018-11-20T06:35:11.422Z,4.84
2018-11-20T06:36:11.524Z,4.74
2018-11-20T06:37:11.327Z,4.84
2018-11-20T06:38:11.187Z,4.74
2018-11-20T16:12:46.420Z,2.47
2018-11-20T16:13:45.820Z,2.55
2018-11-20T16:14:46.121Z,2.43
2018-11-20T16:15:45.723Z,2.50
2018-11-20T16:16:45.575Z,2.50
2018-11-20T16:17:45.536Z,2.45
2018-11-20T16:18:46.072Z,2.51
2018-11-20T16:19:45.537Z,2.55
2018-11-20T16:20:45.729Z,2.44
2018-11-20T16:21:45.330Z,2.45
2018-11-20T16:22:45.390Z,2.43
2018-11-20T16:23:45.233Z,2.38
2018-11-20T16:24:45.287Z,2.45
2018-11-20T16:25:45.850Z,2.43
2018-11-20T16:26:45.192Z,2.37
2018-11-20T16:27:45.140Z,2.43
2018-11-20T16:28:45.141Z,2.43
2018-11-20T16:29:44.942Z,2.43
2018-11-20T16:30:49.937Z,2.41
2018-11-20T16:31:45.096Z,2.41
2018-11-20T16:32:44.950Z,2.43
2018-11-20T16:33:45.097Z,2.43
2018-11-20T16:34:44.851Z,2.41
2018-11-20T16:35:44.655Z,2.40
2018-11-20T16:36:45.004Z,2.47
2018-11-20T16:37:45.003Z,2.53
2018-11-20T16:38:44.768Z,2.50
2018-11-20T16:39:44.958Z,2.55
2018-11-20T16:40:44.512Z,2.62
2018-11-20T16:41:44.761Z,2.53
2018-11-20T16:42:44.782Z,2.55
2018-11-20T16:43:44.873Z,2.50
2018-11-20T16:44:44.417Z,2.55
2018-11-20T16:45:44.321Z,2.58
2018-11-20T16:46:44.144Z,2.56
2018-11-20T16:47:44.983Z,2.61
2018-11-20T16:48:44.084Z,2.58
2018-11-20T16:49:44.121Z,2.58
2018-11-20T16:50:44.128Z,2.65
2018-11-20T16:51:44.129Z,2.65
2018-11-20T16:52:43.981Z,2.61
2018-11-20T16:53:43.956Z,2.61
2018-11-20T16:54:43.849Z,2.62
2018-11-20T16:55:44.288Z,2.68
2018-11-20T16:56:43.732Z,2.66
2018-11-20T16:57:43.684Z,2.63
2018-11-20T16:58:43.539Z,2.59
2018-11-20T16:59:43.743Z,2.65
2018-11-20T17:00:43.541Z,2.65
2018-11-20T17:01:43.442Z,2.66
2018-11-20T17:02:43.795Z,2.58
2018-11-20T17:03:43.299Z,2.59
2018-11-20T17:04:43.300Z,2.66
2018-11-20T17:06:43.256Z,2.68
2018-11-20T17:07:43.695Z,2.68
2018-11-20T17:08:43.105Z,2.69
2018-11-20T17:09:43.560Z,2.65
2018-11-20T17:10:43.057Z,2.62
2018-11-20T17:11:43.208Z,2.63
2018-11-20T17:12:42.998Z,2.65
2018-11-20T17:13:42.864Z,2.63
2018-11-20T17:14:42.964Z,2.63
2018-11-20T17:15:42.725Z,2.65
2018-11-20T17:16:43.190Z,2.68
2018-11-20T17:17:43.022Z,2.65
2018-11-20T17:18:42.873Z,2.73
2018-11-20T17:19:42.719Z,2.68
2018-11-20T17:21:42.423Z,2.65
2018-11-20T17:22:42.477Z,2.69
2018-11-20T17:23:42.778Z,2.65
2018-11-20T17:24:42.638Z,2.66
2018-11-20T17:25:42.435Z,2.62
2018-11-20T17:26:42.285Z,2.65
2018-11-20T17:27:42.134Z,2.66
2018-11-20T17:28:42.342Z,2.65
2018-11-20T17:29:42.139Z,2.68
2018-11-20T17:30:42.290Z,2.62
2018-11-20T17:32:41.995Z,2.66
2018-11-20T17:33:41.944Z,2.63
2018-11-20T17:34:42.284Z,2.66
2018-11-20T17:35:42.099Z,2.69
2018-11-20T17:36:42.156Z,2.65
2018-11-20T17:37:41.851Z,2.63
2018-11-20T17:38:41.613Z,2.73
2018-11-20T17:39:41.909Z,2.74
2018-11-20T17:40:41.562Z,2.69
2018-11-20T17:42:41.715Z,2.74
2018-11-20T17:43:41.867Z,2.66
2018-11-20T17:44:41.319Z,2.74
2018-11-20T17:46:41.223Z,2.62
2018-11-20T17:47:41.423Z,2.74
2018-11-20T17:48:41.429Z,2.71
2018-11-20T17:49:41.589Z,2.69
2018-11-20T17:50:41.378Z,2.73
2018-11-20T17:51:41.232Z,2.73
2018-11-20T17:52:41.130Z,2.76
